Aviation Digital Data Service (ADDS)

Output produced by TAFs form (0703 UTC 18 December 2017)
found at http://aviationweather.gov/adds/tafs/
 
KCLT 180652Z 20003KT 10SM OVC028 09/06 A3017 RMK AO2 SLP216 T00940056
KCLT 180527Z 1806/1912 21003KT P6SM OVC025 
     FM181100 24003KT P6SM BKN250 
     TEMPO 1811/1815 BKN025 
     FM190500 26003KT 5SM BR SCT250 
     FM190700 26003KT 2SM BR BKN250